sensor_id;sensor_type;location;lat;lon;timestamp;P1;durP1;ratioP1;P2;durP2;ratioP2
21517;SDS011;61765;45.794;24.150;2023-05-07T00:07:07;9.48;;;2.72;;
21517;SDS011;61765;45.794;24.150;2023-05-07T00:15:15;5.43;;;2.50;;
21517;SDS011;61765;45.794;24.150;2023-05-07T00:23:21;4.88;;;2.50;;
21517;SDS011;61765;45.794;24.150;2023-05-07T00:31:29;4.38;;;2.40;;
21517;SDS011;61765;45.794;24.150;2023-05-07T00:39:35;4.55;;;2.83;;
21517;SDS011;61765;45.794;24.150;2023-05-07T00:47:43;5.80;;;2.47;;
21517;SDS011;61765;45.794;24.150;2023-05-07T00:55:49;3.65;;;2.17;;
21517;SDS011;61765;45.794;24.150;2023-05-07T01:03:57;3.35;;;2.20;;
21517;SDS011;61765;45.794;24.150;2023-05-07T01:12:04;4.50;;;2.13;;
21517;SDS011;61765;45.794;24.150;2023-05-07T01:20:14;3.10;;;1.88;;
21517;SDS011;61765;45.794;24.150;2023-05-07T01:28:24;3.22;;;1.80;;
21517;SDS011;61765;45.794;24.150;2023-05-07T01:36:33;2.90;;;2.28;;
21517;SDS011;61765;45.794;24.150;2023-05-07T01:44:43;4.78;;;2.10;;
21517;SDS011;61765;45.794;24.150;2023-05-07T01:52:50;5.05;;;2.03;;
21517;SDS011;61765;45.794;24.150;2023-05-07T02:01:02;4.60;;;2.35;;
21517;SDS011;61765;45.794;24.150;2023-05-07T02:09:17;4.13;;;2.40;;
21517;SDS011;61765;45.794;24.150;2023-05-07T02:17:26;4.60;;;1.88;;
21517;SDS011;61765;45.794;24.150;2023-05-07T02:25:34;5.95;;;2.08;;
21517;SDS011;61765;45.794;24.150;2023-05-07T02:33:42;5.32;;;2.10;;
21517;SDS011;61765;45.794;24.150;2023-05-07T02:41:49;4.15;;;2.00;;
21517;SDS011;61765;45.794;24.150;2023-05-07T02:49:57;4.45;;;2.08;;
21517;SDS011;61765;45.794;24.150;2023-05-07T02:58:03;4.95;;;2.00;;
21517;SDS011;61765;45.794;24.150;2023-05-07T03:06:14;4.05;;;1.80;;
21517;SDS011;61765;45.794;24.150;2023-05-07T03:14:20;5.07;;;2.03;;
21517;SDS011;61765;45.794;24.150;2023-05-07T03:22:28;3.15;;;2.30;;
21517;SDS011;61765;45.794;24.150;2023-05-07T03:30:33;2.75;;;2.00;;
21517;SDS011;61765;45.794;24.150;2023-05-07T03:38:41;5.07;;;2.00;;
21517;SDS011;61765;45.794;24.150;2023-05-07T04:30:10;7.85;;;2.45;;
21517;SDS011;61765;45.794;24.150;2023-05-07T04:38:18;4.78;;;2.42;;
21517;SDS011;61765;45.794;24.150;2023-05-07T04:46:30;4.32;;;1.92;;
21517;SDS011;61765;45.794;24.150;2023-05-07T04:54:36;7.53;;;2.10;;
21517;SDS011;61765;45.794;24.150;2023-05-07T05:02:45;4.88;;;1.95;;
21517;SDS011;61765;45.794;24.150;2023-05-07T05:10:54;5.47;;;2.40;;
21517;SDS011;61765;45.794;24.150;2023-05-07T05:19:02;2.78;;;2.22;;
21517;SDS011;61765;45.794;24.150;2023-05-07T05:27:11;2.05;;;1.77;;
21517;SDS011;61765;45.794;24.150;2023-05-07T05:35:19;3.22;;;2.30;;
21517;SDS011;61765;45.794;24.150;2023-05-07T05:43:25;2.47;;;2.15;;
21517;SDS011;61765;45.794;24.150;2023-05-07T05:51:33;4.95;;;2.22;;
21517;SDS011;61765;45.794;24.150;2023-05-07T05:59:39;4.70;;;2.40;;
21517;SDS011;61765;45.794;24.150;2023-05-07T06:07:50;6.10;;;2.55;;
21517;SDS011;61765;45.794;24.150;2023-05-07T06:15:56;4.03;;;2.38;;
21517;SDS011;61765;45.794;24.150;2023-05-07T06:24:04;3.15;;;2.20;;
21517;SDS011;61765;45.794;24.150;2023-05-07T06:32:13;6.80;;;2.50;;
21517;SDS011;61765;45.794;24.150;2023-05-07T06:40:23;2.33;;;2.13;;
21517;SDS011;61765;45.794;24.150;2023-05-07T06:48:29;4.15;;;2.40;;
21517;SDS011;61765;45.794;24.150;2023-05-07T06:56:41;5.22;;;2.00;;
21517;SDS011;61765;45.794;24.150;2023-05-07T07:04:47;3.78;;;2.28;;
21517;SDS011;61765;45.794;24.150;2023-05-07T07:12:56;4.25;;;2.65;;
21517;SDS011;61765;45.794;24.150;2023-05-07T07:21:02;5.13;;;2.00;;
21517;SDS011;61765;45.794;24.150;2023-05-07T07:29:11;3.50;;;2.45;;
21517;SDS011;61765;45.794;24.150;2023-05-07T07:37:17;5.47;;;2.63;;
21517;SDS011;61765;45.794;24.150;2023-05-07T07:45:25;3.00;;;2.42;;
21517;SDS011;61765;45.794;24.150;2023-05-07T07:53:31;4.07;;;2.47;;
21517;SDS011;61765;45.794;24.150;2023-05-07T08:01:39;4.28;;;3.38;;
21517;SDS011;61765;45.794;24.150;2023-05-07T08:09:45;3.00;;;2.47;;
21517;SDS011;61765;45.794;24.150;2023-05-07T08:17:57;4.72;;;2.88;;
21517;SDS011;61765;45.794;24.150;2023-05-07T08:26:04;5.88;;;3.00;;
21517;SDS011;61765;45.794;24.150;2023-05-07T08:34:13;5.72;;;3.63;;
21517;SDS011;61765;45.794;24.150;2023-05-07T08:42:22;7.82;;;3.75;;
21517;SDS011;61765;45.794;24.150;2023-05-07T08:50:32;5.00;;;3.53;;
21517;SDS011;61765;45.794;24.150;2023-05-07T08:58:40;4.90;;;3.00;;
21517;SDS011;61765;45.794;24.150;2023-05-07T09:06:49;4.60;;;3.40;;
21517;SDS011;61765;45.794;24.150;2023-05-07T09:14:56;4.03;;;3.47;;
21517;SDS011;61765;45.794;24.150;2023-05-07T09:23:08;4.78;;;3.88;;
21517;SDS011;61765;45.794;24.150;2023-05-07T09:31:14;6.43;;;3.72;;
21517;SDS011;61765;45.794;24.150;2023-05-07T09:39:25;6.78;;;3.13;;
21517;SDS011;61765;45.794;24.150;2023-05-07T09:47:32;6.05;;;4.13;;
21517;SDS011;61765;45.794;24.150;2023-05-07T09:55:44;4.38;;;3.92;;
21517;SDS011;61765;45.794;24.150;2023-05-07T10:03:50;6.30;;;4.35;;
21517;SDS011;61765;45.794;24.150;2023-05-07T10:12:00;5.15;;;3.28;;
21517;SDS011;61765;45.794;24.150;2023-05-07T10:20:07;8.77;;;4.20;;
21517;SDS011;61765;45.794;24.150;2023-05-07T10:28:20;16.27;;;3.80;;
21517;SDS011;61765;45.794;24.150;2023-05-07T10:36:29;3.67;;;3.27;;
21517;SDS011;61765;45.794;24.150;2023-05-07T10:44:42;7.10;;;4.00;;
21517;SDS011;61765;45.794;24.150;2023-05-07T11:01:53;3.45;;;3.00;;
21517;SDS011;61765;45.794;24.150;2023-05-07T11:10:08;3.85;;;3.45;;
21517;SDS011;61765;45.794;24.150;2023-05-07T11:18:40;8.45;;;4.55;;
21517;SDS011;61765;45.794;24.150;2023-05-07T11:26:57;5.05;;;3.30;;
21517;SDS011;61765;45.794;24.150;2023-05-07T11:35:07;6.45;;;4.22;;
21517;SDS011;61765;45.794;24.150;2023-05-07T11:43:14;9.95;;;4.22;;
21517;SDS011;61765;45.794;24.150;2023-05-07T11:51:23;6.40;;;3.67;;
21517;SDS011;61765;45.794;24.150;2023-05-07T11:59:30;9.32;;;3.95;;
21517;SDS011;61765;45.794;24.150;2023-05-07T12:07:47;4.57;;;3.63;;
21517;SDS011;61765;45.794;24.150;2023-05-07T12:15:54;5.05;;;3.92;;
21517;SDS011;61765;45.794;24.150;2023-05-07T12:24:03;6.22;;;3.25;;
21517;SDS011;61765;45.794;24.150;2023-05-07T12:32:12;4.93;;;3.95;;
21517;SDS011;61765;45.794;24.150;2023-05-07T12:40:22;8.35;;;4.22;;
21517;SDS011;61765;45.794;24.150;2023-05-07T12:48:27;6.53;;;4.03;;
21517;SDS011;61765;45.794;24.150;2023-05-07T12:56:37;5.80;;;4.22;;
21517;SDS011;61765;45.794;24.150;2023-05-07T13:04:44;6.40;;;3.83;;
21517;SDS011;61765;45.794;24.150;2023-05-07T13:12:52;7.07;;;3.78;;
21517;SDS011;61765;45.794;24.150;2023-05-07T13:20:57;6.25;;;3.72;;
21517;SDS011;61765;45.794;24.150;2023-05-07T13:29:06;5.55;;;3.95;;
21517;SDS011;61765;45.794;24.150;2023-05-07T13:37:12;7.45;;;3.53;;
21517;SDS011;61765;45.794;24.150;2023-05-07T13:45:20;5.95;;;3.50;;
21517;SDS011;61765;45.794;24.150;2023-05-07T13:53:27;6.03;;;3.47;;
21517;SDS011;61765;45.794;24.150;2023-05-07T14:01:35;4.88;;;3.58;;
21517;SDS011;61765;45.794;24.150;2023-05-07T14:09:42;7.70;;;3.92;;
21517;SDS011;61765;45.794;24.150;2023-05-07T14:17:50;4.40;;;3.28;;
21517;SDS011;61765;45.794;24.150;2023-05-07T14:25:56;5.93;;;4.68;;
21517;SDS011;61765;45.794;24.150;2023-05-07T14:34:04;3.65;;;3.22;;
21517;SDS011;61765;45.794;24.150;2023-05-07T14:42:10;5.13;;;3.88;;
21517;SDS011;61765;45.794;24.150;2023-05-07T14:50:18;7.40;;;6.10;;
21517;SDS011;61765;45.794;24.150;2023-05-07T14:58:23;7.93;;;4.55;;
21517;SDS011;61765;45.794;24.150;2023-05-07T15:06:31;6.63;;;4.30;;
21517;SDS011;61765;45.794;24.150;2023-05-07T15:14:37;5.78;;;4.85;;
21517;SDS011;61765;45.794;24.150;2023-05-07T15:22:46;5.55;;;4.20;;
21517;SDS011;61765;45.794;24.150;2023-05-07T15:30:51;4.72;;;4.13;;
21517;SDS011;61765;45.794;24.150;2023-05-07T15:38:59;10.23;;;4.70;;
21517;SDS011;61765;45.794;24.150;2023-05-07T15:47:06;7.30;;;4.75;;
21517;SDS011;61765;45.794;24.150;2023-05-07T15:55:14;8.43;;;4.63;;
21517;SDS011;61765;45.794;24.150;2023-05-07T16:03:19;6.20;;;4.30;;
21517;SDS011;61765;45.794;24.150;2023-05-07T16:11:28;6.22;;;4.07;;
21517;SDS011;61765;45.794;24.150;2023-05-07T16:19:35;6.72;;;4.32;;
21517;SDS011;61765;45.794;24.150;2023-05-07T16:27:43;7.30;;;4.68;;
21517;SDS011;61765;45.794;24.150;2023-05-07T16:35:51;5.07;;;4.13;;
21517;SDS011;61765;45.794;24.150;2023-05-07T16:43:59;8.77;;;4.82;;
21517;SDS011;61765;45.794;24.150;2023-05-07T16:52:05;5.75;;;4.63;;
21517;SDS011;61765;45.794;24.150;2023-05-07T17:00:13;5.53;;;4.80;;
21517;SDS011;61765;45.794;24.150;2023-05-07T17:08:20;6.78;;;4.85;;
21517;SDS011;61765;45.794;24.150;2023-05-07T17:16:28;8.63;;;4.93;;
21517;SDS011;61765;45.794;24.150;2023-05-07T17:24:34;5.82;;;4.53;;
21517;SDS011;61765;45.794;24.150;2023-05-07T17:32:42;7.82;;;5.15;;
21517;SDS011;61765;45.794;24.150;2023-05-07T17:40:47;7.18;;;4.68;;
21517;SDS011;61765;45.794;24.150;2023-05-07T17:48:56;10.23;;;5.68;;
21517;SDS011;61765;45.794;24.150;2023-05-07T17:57:02;7.68;;;5.38;;
21517;SDS011;61765;45.794;24.150;2023-05-07T18:05:11;7.72;;;5.32;;
21517;SDS011;61765;45.794;24.150;2023-05-07T18:13:16;9.60;;;5.47;;
21517;SDS011;61765;45.794;24.150;2023-05-07T18:21:24;9.02;;;6.30;;
21517;SDS011;61765;45.794;24.150;2023-05-07T18:29:30;9.60;;;6.00;;
21517;SDS011;61765;45.794;24.150;2023-05-07T18:37:47;7.32;;;6.25;;
21517;SDS011;61765;45.794;24.150;2023-05-07T18:45:52;9.02;;;7.00;;
21517;SDS011;61765;45.794;24.150;2023-05-07T18:54:00;10.25;;;6.68;;
21517;SDS011;61765;45.794;24.150;2023-05-07T19:02:06;10.73;;;7.82;;
21517;SDS011;61765;45.794;24.150;2023-05-07T19:10:17;7.70;;;6.82;;
21517;SDS011;61765;45.794;24.150;2023-05-07T19:18:23;8.95;;;6.85;;
21517;SDS011;61765;45.794;24.150;2023-05-07T19:26:33;9.80;;;7.00;;
21517;SDS011;61765;45.794;24.150;2023-05-07T19:34:39;10.38;;;7.50;;
21517;SDS011;61765;45.794;24.150;2023-05-07T19:42:47;11.02;;;7.25;;
21517;SDS011;61765;45.794;24.150;2023-05-07T19:50:53;7.95;;;5.88;;
21517;SDS011;61765;45.794;24.150;2023-05-07T19:59:02;12.98;;;10.70;;
21517;SDS011;61765;45.794;24.150;2023-05-07T20:07:08;12.05;;;8.45;;
21517;SDS011;61765;45.794;24.150;2023-05-07T20:15:16;8.63;;;6.95;;
21517;SDS011;61765;45.794;24.150;2023-05-07T20:23:21;10.13;;;7.30;;
21517;SDS011;61765;45.794;24.150;2023-05-07T20:31:30;9.43;;;6.68;;
21517;SDS011;61765;45.794;24.150;2023-05-07T20:39:36;8.27;;;6.93;;
21517;SDS011;61765;45.794;24.150;2023-05-07T20:47:44;17.33;;;7.90;;
21517;SDS011;61765;45.794;24.150;2023-05-07T20:55:49;10.35;;;8.48;;
21517;SDS011;61765;45.794;24.150;2023-05-07T21:03:58;9.98;;;7.72;;
21517;SDS011;61765;45.794;24.150;2023-05-07T21:12:04;12.73;;;9.18;;
21517;SDS011;61765;45.794;24.150;2023-05-07T21:20:12;12.90;;;10.02;;
21517;SDS011;61765;45.794;24.150;2023-05-07T21:28:18;13.15;;;10.63;;
21517;SDS011;61765;45.794;24.150;2023-05-07T21:36:26;11.68;;;9.75;;
21517;SDS011;61765;45.794;24.150;2023-05-07T21:44:32;11.38;;;8.95;;
21517;SDS011;61765;45.794;24.150;2023-05-07T21:52:40;11.88;;;9.45;;
21517;SDS011;61765;45.794;24.150;2023-05-07T22:00:45;12.13;;;8.20;;
21517;SDS011;61765;45.794;24.150;2023-05-07T22:08:54;12.35;;;9.25;;
21517;SDS011;61765;45.794;24.150;2023-05-07T22:16:59;8.88;;;7.70;;
21517;SDS011;61765;45.794;24.150;2023-05-07T22:25:17;9.50;;;6.90;;
21517;SDS011;61765;45.794;24.150;2023-05-07T22:33:23;7.25;;;6.35;;
21517;SDS011;61765;45.794;24.150;2023-05-07T22:41:31;9.20;;;6.72;;
21517;SDS011;61765;45.794;24.150;2023-05-07T22:49:36;7.18;;;6.45;;
21517;SDS011;61765;45.794;24.150;2023-05-07T22:57:46;9.05;;;6.10;;
21517;SDS011;61765;45.794;24.150;2023-05-07T23:05:59;8.35;;;7.28;;
21517;SDS011;61765;45.794;24.150;2023-05-07T23:14:07;11.98;;;9.07;;
21517;SDS011;61765;45.794;24.150;2023-05-07T23:22:16;11.88;;;9.73;;
21517;SDS011;61765;45.794;24.150;2023-05-07T23:30:25;11.52;;;9.82;;
21517;SDS011;61765;45.794;24.150;2023-05-07T23:38:30;9.57;;;7.78;;
21517;SDS011;61765;45.794;24.150;2023-05-07T23:46:39;7.93;;;6.53;;
21517;SDS011;61765;45.794;24.150;2023-05-07T23:54:44;10.23;;;6.88;;
